sensor_id;sensor_type;location;lat;lon;timestamp;pressure;altitude;pressure_sealevel;temperature;humidity
82171;BME280;71755;48.038;14.346;2023-11-19T00:00:37;97754.38;;;2.19;99.93
82171;BME280;71755;48.038;14.346;2023-11-19T00:03:03;97761.00;;;2.15;99.89
82171;BME280;71755;48.038;14.346;2023-11-19T00:05:28;97749.41;;;2.10;100.00
82171;BME280;71755;48.038;14.346;2023-11-19T00:07:54;97741.88;;;2.07;100.00
82171;BME280;71755;48.038;14.346;2023-11-19T00:10:20;97736.41;;;2.08;100.00
82171;BME280;71755;48.038;14.346;2023-11-19T00:12:46;97732.59;;;2.11;100.00
82171;BME280;71755;48.038;14.346;2023-11-19T00:15:12;97726.94;;;2.14;99.95
82171;BME280;71755;48.038;14.346;2023-11-19T00:17:41;97717.66;;;2.18;100.00
82171;BME280;71755;48.038;14.346;2023-11-19T00:20:11;97697.22;;;2.20;100.00
82171;BME280;71755;48.038;14.346;2023-11-19T00:22:36;97689.69;;;2.17;100.00
82171;BME280;71755;48.038;14.346;2023-11-19T00:25:02;97682.78;;;2.16;99.68
82171;BME280;71755;48.038;14.346;2023-11-19T00:27:29;97672.44;;;2.14;99.59
82171;BME280;71755;48.038;14.346;2023-11-19T00:29:54;97666.72;;;2.11;99.77
82171;BME280;71755;48.038;14.346;2023-11-19T00:32:20;97665.28;;;2.08;99.86
82171;BME280;71755;48.038;14.346;2023-11-19T00:34:46;97664.09;;;2.11;99.70
82171;BME280;71755;48.038;14.346;2023-11-19T00:37:13;97658.81;;;2.11;99.89
82171;BME280;71755;48.038;14.346;2023-11-19T00:39:39;97651.91;;;2.10;100.00
82171;BME280;71755;48.038;14.346;2023-11-19T00:42:04;97671.34;;;2.09;100.00
82171;BME280;71755;48.038;14.346;2023-11-19T00:44:30;97665.72;;;2.12;99.93
82171;BME280;71755;48.038;14.346;2023-11-19T00:46:56;97658.44;;;2.14;100.00
82171;BME280;71755;48.038;14.346;2023-11-19T00:49:22;97665.72;;;2.12;100.00
82171;BME280;71755;48.038;14.346;2023-11-19T00:51:47;97649.09;;;2.11;100.00
82171;BME280;71755;48.038;14.346;2023-11-19T00:54:14;97654.72;;;2.08;100.00
82171;BME280;71755;48.038;14.346;2023-11-19T00:56:41;97648.28;;;2.11;100.00
82171;BME280;71755;48.038;14.346;2023-11-19T00:59:06;97649.09;;;2.11;100.00
82171;BME280;71755;48.038;14.346;2023-11-19T01:01:33;97654.78;;;2.15;100.00
82171;BME280;71755;48.038;14.346;2023-11-19T01:03:59;97646.50;;;2.18;100.00
82171;BME280;71755;48.038;14.346;2023-11-19T01:06:31;97641.25;;;2.18;100.00
82171;BME280;71755;48.038;14.346;2023-11-19T01:08:57;97653.41;;;2.19;100.00
82171;BME280;71755;48.038;14.346;2023-11-19T01:11:24;97643.50;;;2.21;100.00
82171;BME280;71755;48.038;14.346;2023-11-19T01:13:51;97644.25;;;2.15;100.00
82171;BME280;71755;48.038;14.346;2023-11-19T01:16:17;97651.16;;;2.16;100.00
82171;BME280;71755;48.038;14.346;2023-11-19T01:18:44;97645.88;;;2.16;100.00
82171;BME280;71755;48.038;14.346;2023-11-19T01:21:10;97647.50;;;2.17;100.00
82171;BME280;71755;48.038;14.346;2023-11-19T01:23:36;97634.34;;;2.17;100.00
82171;BME280;71755;48.038;14.346;2023-11-19T01:26:02;97633.13;;;2.19;100.00
82171;BME280;71755;48.038;14.346;2023-11-19T01:28:28;97624.03;;;2.22;100.00
82171;BME280;71755;48.038;14.346;2023-11-19T01:30:53;97624.41;;;2.19;100.00
82171;BME280;71755;48.038;14.346;2023-11-19T01:33:19;97622.78;;;2.18;100.00
82171;BME280;71755;48.038;14.346;2023-11-19T01:35:46;97622.16;;;2.16;100.00
82171;BME280;71755;48.038;14.346;2023-11-19T01:38:12;97614.25;;;2.16;100.00
82171;BME280;71755;48.038;14.346;2023-11-19T01:40:37;97610.00;;;2.15;100.00
82171;BME280;71755;48.038;14.346;2023-11-19T01:43:03;97609.41;;;2.19;100.00
82171;BME280;71755;48.038;14.346;2023-11-19T01:45:30;97596.06;;;2.21;100.00
82171;BME280;71755;48.038;14.346;2023-11-19T01:47:56;97599.69;;;2.20;100.00
82171;BME280;71755;48.038;14.346;2023-11-19T01:50:25;97600.16;;;2.24;100.00
82171;BME280;71755;48.038;14.346;2023-11-19T01:52:54;97584.16;;;2.25;100.00
82171;BME280;71755;48.038;14.346;2023-11-19T01:55:23;97585.59;;;2.28;100.00
82171;BME280;71755;48.038;14.346;2023-11-19T01:57:49;97584.59;;;2.29;100.00
82171;BME280;71755;48.038;14.346;2023-11-19T02:00:16;97579.13;;;2.30;100.00
82171;BME280;71755;48.038;14.346;2023-11-19T02:02:45;97573.03;;;2.30;100.00
82171;BME280;71755;48.038;14.346;2023-11-19T02:05:11;97567.56;;;2.31;100.00
82171;BME280;71755;48.038;14.346;2023-11-19T02:07:41;97568.38;;;2.32;100.00
82171;BME280;71755;48.038;14.346;2023-11-19T02:10:07;97564.13;;;2.31;100.00
82171;BME280;71755;48.038;14.346;2023-11-19T02:12:40;97559.47;;;2.33;100.00
82171;BME280;71755;48.038;14.346;2023-11-19T02:15:10;97557.66;;;2.33;100.00
82171;BME280;71755;48.038;14.346;2023-11-19T02:17:36;97555.00;;;2.33;100.00
82171;BME280;71755;48.038;14.346;2023-11-19T02:20:03;97559.28;;;2.34;100.00
82171;BME280;71755;48.038;14.346;2023-11-19T02:22:32;97552.38;;;2.33;100.00
82171;BME280;71755;48.038;14.346;2023-11-19T02:25:03;97550.38;;;2.35;100.00
82171;BME280;71755;48.038;14.346;2023-11-19T02:30:16;97537.56;;;2.32;100.00
82171;BME280;71755;48.038;14.346;2023-11-19T02:32:42;97535.31;;;2.29;100.00
82171;BME280;71755;48.038;14.346;2023-11-19T02:35:08;97535.72;;;2.26;100.00
82171;BME280;71755;48.038;14.346;2023-11-19T02:37:34;97538.34;;;2.26;100.00
82171;BME280;71755;48.038;14.346;2023-11-19T02:40:00;97528.19;;;2.23;100.00
82171;BME280;71755;48.038;14.346;2023-11-19T02:42:28;97530.81;;;2.23;100.00
82171;BME280;71755;48.038;14.346;2023-11-19T02:44:54;97522.72;;;2.25;100.00
82171;BME280;71755;48.038;14.346;2023-11-19T02:47:20;97518.63;;;2.22;100.00
82171;BME280;71755;48.038;14.346;2023-11-19T02:49:47;97519.63;;;2.21;99.84
82171;BME280;71755;48.038;14.346;2023-11-19T02:52:13;97521.91;;;2.24;100.00
82171;BME280;71755;48.038;14.346;2023-11-19T02:54:40;97513.34;;;2.22;100.00
82171;BME280;71755;48.038;14.346;2023-11-19T02:57:06;97515.00;;;2.23;100.00
82171;BME280;71755;48.038;14.346;2023-11-19T02:59:36;97510.56;;;2.24;100.00
82171;BME280;71755;48.038;14.346;2023-11-19T03:02:07;97504.47;;;2.23;100.00
82171;BME280;71755;48.038;14.346;2023-11-19T03:04:37;97509.34;;;2.26;100.00
82171;BME280;71755;48.038;14.346;2023-11-19T03:07:08;97506.53;;;2.28;100.00
82171;BME280;71755;48.038;14.346;2023-11-19T03:09:34;97507.72;;;2.25;100.00
82171;BME280;71755;48.038;14.346;2023-11-19T03:12:01;97493.94;;;2.23;100.00
82171;BME280;71755;48.038;14.346;2023-11-19T03:14:26;97492.84;;;2.17;100.00
82171;BME280;71755;48.038;14.346;2023-11-19T03:16:53;97497.50;;;2.15;100.00
82171;BME280;71755;48.038;14.346;2023-11-19T03:19:18;97499.94;;;2.17;100.00
82171;BME280;71755;48.038;14.346;2023-11-19T03:21:44;97498.75;;;2.19;100.00
82171;BME280;71755;48.038;14.346;2023-11-19T03:24:10;97495.91;;;2.21;100.00
82171;BME280;71755;48.038;14.346;2023-11-19T03:26:35;97489.00;;;2.20;100.00
82171;BME280;71755;48.038;14.346;2023-11-19T03:29:02;97498.53;;;2.21;100.00
82171;BME280;71755;48.038;14.346;2023-11-19T03:31:28;97495.09;;;2.20;100.00
82171;BME280;71755;48.038;14.346;2023-11-19T03:33:54;97492.09;;;2.24;100.00
82171;BME280;71755;48.038;14.346;2023-11-19T03:36:19;97483.75;;;2.20;100.00
82171;BME280;71755;48.038;14.346;2023-11-19T03:38:45;97487.00;;;2.22;100.00
82171;BME280;71755;48.038;14.346;2023-11-19T03:43:38;97487.00;;;2.22;100.00
82171;BME280;71755;48.038;14.346;2023-11-19T03:46:04;97480.91;;;2.22;100.00
82171;BME280;71755;48.038;14.346;2023-11-19T03:48:31;97469.38;;;2.23;100.00
82171;BME280;71755;48.038;14.346;2023-11-19T03:50:56;97478.94;;;2.24;100.00
82171;BME280;71755;48.038;14.346;2023-11-19T03:53:22;97471.84;;;2.24;100.00
82171;BME280;71755;48.038;14.346;2023-11-19T03:55:50;97461.91;;;2.26;100.00
82171;BME280;71755;48.038;14.346;2023-11-19T03:58:15;97452.56;;;2.24;100.00
82171;BME280;71755;48.038;14.346;2023-11-19T04:00:41;97448.66;;;2.19;100.00
82171;BME280;71755;48.038;14.346;2023-11-19T04:03:06;97436.50;;;2.18;100.00
82171;BME280;71755;48.038;14.346;2023-11-19T04:05:32;97441.56;;;2.20;100.00
82171;BME280;71755;48.038;14.346;2023-11-19T04:07:58;97434.28;;;2.22;100.00
82171;BME280;71755;48.038;14.346;2023-11-19T04:10:23;97423.75;;;2.22;100.00
82171;BME280;71755;48.038;14.346;2023-11-19T04:12:49;97419.47;;;2.21;100.00
82171;BME280;71755;48.038;14.346;2023-11-19T04:15:15;97408.59;;;2.24;100.00
82171;BME280;71755;48.038;14.346;2023-11-19T04:17:41;97396.22;;;2.25;100.00
82171;BME280;71755;48.038;14.346;2023-11-19T04:20:06;97387.31;;;2.26;100.00
82171;BME280;71755;48.038;14.346;2023-11-19T04:22:36;97392.38;;;2.27;100.00
82171;BME280;71755;48.038;14.346;2023-11-19T04:25:02;97389.94;;;2.26;100.00
82171;BME280;71755;48.038;14.346;2023-11-19T04:27:27;97395.00;;;2.27;100.00
82171;BME280;71755;48.038;14.346;2023-11-19T04:29:54;97385.47;;;2.26;100.00
82171;BME280;71755;48.038;14.346;2023-11-19T04:32:20;97397.03;;;2.25;100.00
82171;BME280;71755;48.038;14.346;2023-11-19T04:34:46;97389.75;;;2.27;100.00
82171;BME280;71755;48.038;14.346;2023-11-19T04:37:11;97388.94;;;2.27;100.00
82171;BME280;71755;48.038;14.346;2023-11-19T04:39:37;97384.47;;;2.27;100.00
82171;BME280;71755;48.038;14.346;2023-11-19T04:42:03;97382.66;;;2.28;100.00
82171;BME280;71755;48.038;14.346;2023-11-19T04:44:30;97385.88;;;2.23;100.00
82171;BME280;71755;48.038;14.346;2023-11-19T04:46:56;97378.34;;;2.20;100.00
82171;BME280;71755;48.038;14.346;2023-11-19T04:49:22;97392.13;;;2.22;100.00
82171;BME280;71755;48.038;14.346;2023-11-19T04:51:48;97399.66;;;2.25;100.00
82171;BME280;71755;48.038;14.346;2023-11-19T04:54:14;97399.41;;;2.20;100.00
82171;BME280;71755;48.038;14.346;2023-11-19T04:56:39;97399.06;;;2.23;100.00
82171;BME280;71755;48.038;14.346;2023-11-19T04:59:05;97407.31;;;2.20;100.00
82171;BME280;71755;48.038;14.346;2023-11-19T05:01:32;97403.06;;;2.19;100.00
82171;BME280;71755;48.038;14.346;2023-11-19T05:03:58;97408.31;;;2.19;100.00
82171;BME280;71755;48.038;14.346;2023-11-19T05:06:28;97400.81;;;2.16;100.00
82171;BME280;71755;48.038;14.346;2023-11-19T05:08:54;97402.63;;;2.15;100.00
82171;BME280;71755;48.038;14.346;2023-11-19T05:11:20;97400.81;;;2.16;100.00
82171;BME280;71755;48.038;14.346;2023-11-19T05:13:45;97402.44;;;2.17;100.00
82171;BME280;71755;48.038;14.346;2023-11-19T05:16:11;97397.78;;;2.19;100.00
82171;BME280;71755;48.038;14.346;2023-11-19T05:18:39;97399.22;;;2.22;100.00
82171;BME280;71755;48.038;14.346;2023-11-19T05:21:05;97396.97;;;2.18;100.00
82171;BME280;71755;48.038;14.346;2023-11-19T05:23:32;97398.19;;;2.16;100.00
82171;BME280;71755;48.038;14.346;2023-11-19T05:26:00;97403.25;;;2.17;100.00
82171;BME280;71755;48.038;14.346;2023-11-19T05:28:25;97408.91;;;2.14;100.00
82171;BME280;71755;48.038;14.346;2023-11-19T05:30:51;97401.00;;;2.14;100.00
82171;BME280;71755;48.038;14.346;2023-11-19T05:33:17;97409.94;;;2.13;100.00
82171;BME280;71755;48.038;14.346;2023-11-19T05:35:42;97401.78;;;2.08;100.00
82171;BME280;71755;48.038;14.346;2023-11-19T05:38:08;97401.59;;;2.10;100.00
82171;BME280;71755;48.038;14.346;2023-11-19T05:40:35;97403.22;;;2.11;100.00
82171;BME280;71755;48.038;14.346;2023-11-19T05:43:01;97398.56;;;2.13;100.00
82171;BME280;71755;48.038;14.346;2023-11-19T05:45:26;97409.94;;;2.13;100.00
82171;BME280;71755;48.038;14.346;2023-11-19T05:47:52;97418.63;;;2.14;100.00
82171;BME280;71755;48.038;14.346;2023-11-19T05:50:18;97431.63;;;2.15;100.00
82171;BME280;71755;48.038;14.346;2023-11-19T05:52:44;97421.28;;;2.14;100.00
82171;BME280;71755;48.038;14.346;2023-11-19T05:55:10;97420.28;;;2.15;100.00
82171;BME280;71755;48.038;14.346;2023-11-19T05:57:36;97432.63;;;2.14;100.00
82171;BME280;71755;48.038;14.346;2023-11-19T06:00:03;97429.19;;;2.14;100.00
82171;BME280;71755;48.038;14.346;2023-11-19T06:02:34;97424.91;;;2.13;100.00
82171;BME280;71755;48.038;14.346;2023-11-19T06:05:00;97430.00;;;2.14;100.00
82171;BME280;71755;48.038;14.346;2023-11-19T06:07:26;97428.56;;;2.12;100.00
82171;BME280;71755;48.038;14.346;2023-11-19T06:09:53;97432.44;;;2.16;100.00
82171;BME280;71755;48.038;14.346;2023-11-19T06:12:18;97429.81;;;2.16;100.00
82171;BME280;71755;48.038;14.346;2023-11-19T06:14:44;97411.94;;;2.11;100.00
82171;BME280;71755;48.038;14.346;2023-11-19T06:17:10;97405.84;;;2.11;100.00
82171;BME280;71755;48.038;14.346;2023-11-19T06:19:37;97398.75;;;2.11;100.00
82171;BME280;71755;48.038;14.346;2023-11-19T06:22:05;97415.63;;;2.17;100.00
82171;BME280;71755;48.038;14.346;2023-11-19T06:24:31;97412.78;;;2.18;100.00
82171;BME280;71755;48.038;14.346;2023-11-19T06:26:57;97402.25;;;2.18;100.00
82171;BME280;71755;48.038;14.346;2023-11-19T06:29:23;97404.69;;;2.20;100.00
82171;BME280;71755;48.038;14.346;2023-11-19T06:31:50;97400.41;;;2.19;100.00
82171;BME280;71755;48.038;14.346;2023-11-19T06:34:16;97393.34;;;2.19;100.00
82171;BME280;71755;48.038;14.346;2023-11-19T06:36:42;97387.06;;;2.20;100.00
82171;BME280;71755;48.038;14.346;2023-11-19T06:39:10;97390.50;;;2.21;100.00
82171;BME280;71755;48.038;14.346;2023-11-19T06:41:36;97381.97;;;2.19;100.00
82171;BME280;71755;48.038;14.346;2023-11-19T06:44:05;97382.41;;;2.23;100.00
82171;BME280;71755;48.038;14.346;2023-11-19T06:46:31;97361.31;;;2.23;100.00
82171;BME280;71755;48.038;14.346;2023-11-19T06:48:57;97370.47;;;2.27;100.00
82171;BME280;71755;48.038;14.346;2023-11-19T06:51:22;97376.75;;;2.26;100.00
82171;BME280;71755;48.038;14.346;2023-11-19T06:53:50;97362.78;;;2.25;100.00
82171;BME280;71755;48.038;14.346;2023-11-19T06:56:22;97357.06;;;2.22;100.00
82171;BME280;71755;48.038;14.346;2023-11-19T06:58:48;97360.88;;;2.12;100.00
82171;BME280;71755;48.038;14.346;2023-11-19T07:01:18;97365.31;;;2.12;100.00
82171;BME280;71755;48.038;14.346;2023-11-19T07:03:46;97359.84;;;2.07;100.00
82171;BME280;71755;48.038;14.346;2023-11-19T07:06:13;97371.97;;;2.01;100.00
82171;BME280;71755;48.038;14.346;2023-11-19T07:08:40;97359.81;;;2.00;100.00
82171;BME280;71755;48.038;14.346;2023-11-19T07:11:06;97381.47;;;1.96;100.00
82171;BME280;71755;48.038;14.346;2023-11-19T07:13:32;97362.44;;;2.00;100.00
82171;BME280;71755;48.038;14.346;2023-11-19T07:15:57;97351.09;;;2.00;100.00
82171;BME280;71755;48.038;14.346;2023-11-19T07:18:23;97362.84;;;1.97;100.00
82171;BME280;71755;48.038;14.346;2023-11-19T07:20:49;97367.91;;;1.99;100.00
82171;BME280;71755;48.038;14.346;2023-11-19T07:23:15;97366.13;;;2.06;100.00
82171;BME280;71755;48.038;14.346;2023-11-19T07:25:44;97359.47;;;2.16;100.00
82171;BME280;71755;48.038;14.346;2023-11-19T07:28:12;97374.31;;;2.24;100.00
82171;BME280;71755;48.038;14.346;2023-11-19T07:30:38;97373.53;;;2.30;100.00
82171;BME280;71755;48.038;14.346;2023-11-19T07:33:04;97362.19;;;2.36;100.00
82171;BME280;71755;48.038;14.346;2023-11-19T07:35:30;97346.00;;;2.39;100.00
82171;BME280;71755;48.038;14.346;2023-11-19T07:37:56;97360.19;;;2.45;100.00
82171;BME280;71755;48.038;14.346;2023-11-19T07:40:23;97362.25;;;2.49;100.00
82171;BME280;71755;48.038;14.346;2023-11-19T07:42:49;97347.44;;;2.55;100.00
82171;BME280;71755;48.038;14.346;2023-11-19T07:45:14;97339.94;;;2.59;100.00
82171;BME280;71755;48.038;14.346;2023-11-19T07:47:40;97346.47;;;2.63;100.00
82171;BME280;71755;48.038;14.346;2023-11-19T07:50:06;97358.25;;;2.67;100.00
82171;BME280;71755;48.038;14.346;2023-11-19T07:52:32;97354.41;;;2.69;100.00
82171;BME280;71755;48.038;14.346;2023-11-19T07:54:58;97358.47;;;2.72;100.00
82171;BME280;71755;48.038;14.346;2023-11-19T07:57:24;97348.53;;;2.74;100.00
82171;BME280;71755;48.038;14.346;2023-11-19T07:59:53;97347.72;;;2.73;100.00
82171;BME280;71755;48.038;14.346;2023-11-19T08:02:19;97350.75;;;2.77;100.00
82171;BME280;71755;48.038;14.346;2023-11-19T08:04:45;97355.03;;;2.78;100.00
82171;BME280;71755;48.038;14.346;2023-11-19T08:07:11;97351.97;;;2.81;100.00
82171;BME280;71755;48.038;14.346;2023-11-19T08:09:37;97358.69;;;2.83;100.00
82171;BME280;71755;48.038;14.346;2023-11-19T08:12:03;97368.00;;;2.86;100.00
82171;BME280;71755;48.038;14.346;2023-11-19T08:14:29;97371.25;;;2.81;100.00
82171;BME280;71755;48.038;14.346;2023-11-19T08:16:54;97380.41;;;2.86;100.00
82171;BME280;71755;48.038;14.346;2023-11-19T08:19:20;97362.34;;;2.82;100.00
82171;BME280;71755;48.038;14.346;2023-11-19T08:21:46;97385.03;;;2.77;100.00
82171;BME280;71755;48.038;14.346;2023-11-19T08:24:11;97378.97;;;2.83;100.00
82171;BME280;71755;48.038;14.346;2023-11-19T08:26:37;97382.84;;;2.87;100.00
82171;BME280;71755;48.038;14.346;2023-11-19T08:29:02;97368.44;;;2.90;100.00
82171;BME280;71755;48.038;14.346;2023-11-19T08:31:28;97367.22;;;2.92;100.00
82171;BME280;71755;48.038;14.346;2023-11-19T08:33:54;97361.53;;;2.95;100.00
82171;BME280;71755;48.038;14.346;2023-11-19T08:36:19;97361.16;;;2.98;100.00
82171;BME280;71755;48.038;14.346;2023-11-19T08:38:46;97350.19;;;3.01;100.00
82171;BME280;71755;48.038;14.346;2023-11-19T08:41:13;97348.16;;;3.03;100.00
82171;BME280;71755;48.038;14.346;2023-11-19T08:43:39;97347.97;;;3.05;100.00
82171;BME280;71755;48.038;14.346;2023-11-19T08:46:09;97349.78;;;3.04;100.00
82171;BME280;71755;48.038;14.346;2023-11-19T08:48:35;97352.63;;;3.09;100.00
82171;BME280;71755;48.038;14.346;2023-11-19T08:51:01;97349.19;;;3.09;100.00
82171;BME280;71755;48.038;14.346;2023-11-19T08:53:27;97348.16;;;3.10;100.00
82171;BME280;71755;48.038;14.346;2023-11-19T08:55:52;97344.13;;;3.14;100.00
82171;BME280;71755;48.038;14.346;2023-11-19T08:58:18;97340.84;;;3.19;100.00
82171;BME280;71755;48.038;14.346;2023-11-19T09:00:43;97340.44;;;3.22;100.00
82171;BME280;71755;48.038;14.346;2023-11-19T09:03:09;97327.88;;;3.24;100.00
82171;BME280;71755;48.038;14.346;2023-11-19T09:05:35;97326.03;;;3.24;100.00
82171;BME280;71755;48.038;14.346;2023-11-19T09:08:02;97330.28;;;3.25;100.00
82171;BME280;71755;48.038;14.346;2023-11-19T09:10:29;97319.13;;;3.30;100.00
82171;BME280;71755;48.038;14.346;2023-11-19T09:12:55;97326.44;;;3.34;100.00
82171;BME280;71755;48.038;14.346;2023-11-19T09:15:21;97325.25;;;3.37;100.00
82171;BME280;71755;48.038;14.346;2023-11-19T09:17:46;97324.00;;;3.39;100.00
82171;BME280;71755;48.038;14.346;2023-11-19T09:20:12;97329.50;;;3.38;100.00
82171;BME280;71755;48.038;14.346;2023-11-19T09:22:41;97321.16;;;3.41;100.00
82171;BME280;71755;48.038;14.346;2023-11-19T09:25:06;97310.59;;;3.34;100.00
82171;BME280;71755;48.038;14.346;2023-11-19T09:27:32;97320.13;;;3.29;100.00
82171;BME280;71755;48.038;14.346;2023-11-19T09:29:58;97313.25;;;3.28;100.00
82171;BME280;71755;48.038;14.346;2023-11-19T09:32:24;97316.88;;;3.33;100.00
82171;BME280;71755;48.038;14.346;2023-11-19T09:34:50;97296.19;;;3.30;100.00
82171;BME280;71755;48.038;14.346;2023-11-19T09:37:16;97307.97;;;3.41;100.00
82171;BME280;71755;48.038;14.346;2023-11-19T09:39:42;97308.38;;;3.44;100.00
82171;BME280;71755;48.038;14.346;2023-11-19T09:42:11;97295.34;;;3.50;100.00
82171;BME280;71755;48.038;14.346;2023-11-19T09:44:37;97301.44;;;3.50;100.00
82171;BME280;71755;48.038;14.346;2023-11-19T09:47:05;97294.94;;;3.59;100.00
82171;BME280;71755;48.038;14.346;2023-11-19T09:49:31;97292.28;;;3.59;100.00
82171;BME280;71755;48.038;14.346;2023-11-19T09:51:57;97289.03;;;3.64;100.00
82171;BME280;71755;48.038;14.346;2023-11-19T09:54:23;97285.75;;;3.68;100.00
82171;BME280;71755;48.038;14.346;2023-11-19T09:56:49;97290.63;;;3.71;100.00
82171;BME280;71755;48.038;14.346;2023-11-19T09:59:15;97285.97;;;3.73;100.00
82171;BME280;71755;48.038;14.346;2023-11-19T10:01:41;97295.09;;;3.78;100.00
82171;BME280;71755;48.038;14.346;2023-11-19T10:04:08;97296.72;;;3.79;100.00
82171;BME280;71755;48.038;14.346;2023-11-19T10:06:34;97287.56;;;3.81;100.00
82171;BME280;71755;48.038;14.346;2023-11-19T10:09:00;97284.31;;;3.86;100.00
82171;BME280;71755;48.038;14.346;2023-11-19T10:11:26;97288.78;;;3.85;100.00
82171;BME280;71755;48.038;14.346;2023-11-19T10:13:53;97294.25;;;3.84;100.00
82171;BME280;71755;48.038;14.346;2023-11-19T10:16:19;97277.19;;;3.86;100.00
82171;BME280;71755;48.038;14.346;2023-11-19T10:18:45;97280.22;;;3.90;100.00
82171;BME280;71755;48.038;14.346;2023-11-19T10:21:12;97276.97;;;3.88;100.00
82171;BME280;71755;48.038;14.346;2023-11-19T10:26:17;97262.31;;;3.92;100.00
82171;BME280;71755;48.038;14.346;2023-11-19T10:28:45;97262.50;;;3.97;100.00
82171;BME280;71755;48.038;14.346;2023-11-19T10:31:15;97258.19;;;4.02;100.00
82171;BME280;71755;48.038;14.346;2023-11-19T10:33:41;97263.06;;;4.05;100.00
82171;BME280;71755;48.038;14.346;2023-11-19T10:36:09;97253.31;;;4.13;100.00
82171;BME280;71755;48.038;14.346;2023-11-19T10:38:35;97256.50;;;4.21;100.00
82171;BME280;71755;48.038;14.346;2023-11-19T10:41:01;97253.22;;;4.26;100.00
82171;BME280;71755;48.038;14.346;2023-11-19T10:43:26;97249.09;;;4.36;100.00
82171;BME280;71755;48.038;14.346;2023-11-19T10:45:53;97237.66;;;4.43;100.00
82171;BME280;71755;48.038;14.346;2023-11-19T10:48:18;97243.59;;;4.38;100.00
82171;BME280;71755;48.038;14.346;2023-11-19T10:50:45;97241.97;;;4.37;100.00
82171;BME280;71755;48.038;14.346;2023-11-19T10:53:12;97243.38;;;4.39;100.00
82171;BME280;71755;48.038;14.346;2023-11-19T10:55:43;97225.47;;;4.42;100.00
82171;BME280;71755;48.038;14.346;2023-11-19T10:58:10;97234.81;;;4.44;100.00
82171;BME280;71755;48.038;14.346;2023-11-19T11:03:19;97232.72;;;4.53;100.00
82171;BME280;71755;48.038;14.346;2023-11-19T11:05:47;97222.97;;;4.53;100.00
82171;BME280;71755;48.038;14.346;2023-11-19T11:08:13;97220.09;;;4.55;100.00
82171;BME280;71755;48.038;14.346;2023-11-19T11:13:11;97237.00;;;4.54;100.00
82171;BME280;71755;48.038;14.346;2023-11-19T11:15:37;97229.50;;;4.51;100.00
82171;BME280;71755;48.038;14.346;2023-11-19T11:18:03;97242.13;;;4.49;100.00
82171;BME280;71755;48.038;14.346;2023-11-19T11:20:32;97223.78;;;4.54;100.00
82171;BME280;71755;48.038;14.346;2023-11-19T11:33:40;97222.53;;;4.56;100.00
82171;BME280;71755;48.038;14.346;2023-11-19T11:36:11;97230.91;;;4.53;100.00
82171;BME280;71755;48.038;14.346;2023-11-19T11:38:39;97225.81;;;4.52;100.00
82171;BME280;71755;48.038;14.346;2023-11-19T11:41:16;97233.13;;;4.56;100.00
82171;BME280;71755;48.038;14.346;2023-11-19T11:43:45;97226.31;;;4.67;100.00
82171;BME280;71755;48.038;14.346;2023-11-19T11:48:55;97205.97;;;4.67;100.00
82171;BME280;71755;48.038;14.346;2023-11-19T11:52:07;97207.31;;;4.77;100.00
82171;BME280;71755;48.038;14.346;2023-11-19T11:54:09;97207.09;;;4.78;100.00
82171;BME280;71755;48.038;14.346;2023-11-19T11:56:38;97184.69;;;4.81;100.00
82171;BME280;71755;48.038;14.346;2023-11-19T11:59:19;97204.56;;;4.90;100.00
82171;BME280;71755;48.038;14.346;2023-11-19T12:02:18;97201.13;;;4.89;100.00
82171;BME280;71755;48.038;14.346;2023-11-19T12:04:36;97195.09;;;5.00;100.00
82171;BME280;71755;48.038;14.346;2023-11-19T12:07:08;97197.41;;;5.15;100.00
82171;BME280;71755;48.038;14.346;2023-11-19T12:09:39;97194.25;;;5.25;100.00
82171;BME280;71755;48.038;14.346;2023-11-19T12:12:22;97191.53;;;5.31;100.00
82171;BME280;71755;48.038;14.346;2023-11-19T12:15:07;97179.56;;;5.29;100.00
82171;BME280;71755;48.038;14.346;2023-11-19T12:20:10;97184.38;;;5.14;100.00
82171;BME280;71755;48.038;14.346;2023-11-19T12:22:40;97177.91;;;5.10;100.00
82171;BME280;71755;48.038;14.346;2023-11-19T12:25:07;97174.97;;;5.18;100.00
82171;BME280;71755;48.038;14.346;2023-11-19T12:27:34;97172.50;;;5.23;100.00
82171;BME280;71755;48.038;14.346;2023-11-19T12:30:00;97190.28;;;5.52;100.00
82171;BME280;71755;48.038;14.346;2023-11-19T12:32:39;97166.75;;;6.11;100.00
82171;BME280;71755;48.038;14.346;2023-11-19T12:35:05;97177.50;;;6.16;100.00
82171;BME280;71755;48.038;14.346;2023-11-19T12:37:32;97174.22;;;6.02;100.00
82171;BME280;71755;48.038;14.346;2023-11-19T12:39:58;97170.44;;;6.10;100.00
82171;BME280;71755;48.038;14.346;2023-11-19T12:42:36;97164.59;;;6.19;100.00
82171;BME280;71755;48.038;14.346;2023-11-19T12:45:06;97163.09;;;6.23;100.00
82171;BME280;71755;48.038;14.346;2023-11-19T12:47:33;97167.66;;;6.35;100.00
82171;BME280;71755;48.038;14.346;2023-11-19T12:49:59;97167.00;;;6.51;100.00
82171;BME280;71755;48.038;14.346;2023-11-19T12:52:24;97164.03;;;6.82;100.00
82171;BME280;71755;48.038;14.346;2023-11-19T12:54:50;97159.78;;;6.81;100.00
82171;BME280;71755;48.038;14.346;2023-11-19T12:57:16;97157.13;;;6.81;100.00
82171;BME280;71755;48.038;14.346;2023-11-19T13:00:05;97148.44;;;6.98;99.47
82171;BME280;71755;48.038;14.346;2023-11-19T13:05:31;97169.94;;;6.84;98.28
82171;BME280;71755;48.038;14.346;2023-11-19T13:10:24;97160.19;;;6.67;99.79
82171;BME280;71755;48.038;14.346;2023-11-19T13:13:00;97157.53;;;6.55;100.00
82171;BME280;71755;48.038;14.346;2023-11-19T13:15:26;97142.88;;;6.52;100.00
82171;BME280;71755;48.038;14.346;2023-11-19T13:17:52;97154.06;;;6.54;100.00
82171;BME280;71755;48.038;14.346;2023-11-19T13:20:18;97139.09;;;6.83;100.00
82171;BME280;71755;48.038;14.346;2023-11-19T13:25:40;97135.00;;;7.51;99.98